sensor_id;sensor_type;location;lat;lon;timestamp;P1;durP1;ratioP1;P2;durP2;ratioP2
22861;SDS011;11598;50.652;6.172;2022-12-18T00:08:10;3.45;;;1.08;;
22861;SDS011;11598;50.652;6.172;2022-12-18T00:18:10;2.75;;;0.88;;
22861;SDS011;11598;50.652;6.172;2022-12-18T00:28:11;4.03;;;0.80;;
22861;SDS011;11598;50.652;6.172;2022-12-18T00:38:11;2.42;;;0.80;;
22861;SDS011;11598;50.652;6.172;2022-12-18T00:48:11;3.58;;;0.93;;
22861;SDS011;11598;50.652;6.172;2022-12-18T00:58:13;2.28;;;0.70;;
22861;SDS011;11598;50.652;6.172;2022-12-18T01:18:18;2.60;;;0.75;;
22861;SDS011;11598;50.652;6.172;2022-12-18T01:28:18;2.15;;;0.70;;
22861;SDS011;11598;50.652;6.172;2022-12-18T01:38:18;1.95;;;0.70;;
22861;SDS011;11598;50.652;6.172;2022-12-18T01:48:19;1.50;;;0.57;;
22861;SDS011;11598;50.652;6.172;2022-12-18T01:58:20;2.67;;;0.90;;
22861;SDS011;11598;50.652;6.172;2022-12-18T02:18:57;2.92;;;1.00;;
22861;SDS011;11598;50.652;6.172;2022-12-18T02:29:05;1.30;;;0.50;;
22861;SDS011;11598;50.652;6.172;2022-12-18T02:39:12;4.38;;;0.70;;
22861;SDS011;11598;50.652;6.172;2022-12-18T02:59:39;2.92;;;0.93;;
22861;SDS011;11598;50.652;6.172;2022-12-18T03:09:48;2.53;;;0.80;;
22861;SDS011;11598;50.652;6.172;2022-12-18T03:19:52;3.22;;;0.77;;
22861;SDS011;11598;50.652;6.172;2022-12-18T03:30:04;2.90;;;1.00;;
22861;SDS011;11598;50.652;6.172;2022-12-18T03:40:10;2.38;;;0.82;;
22861;SDS011;11598;50.652;6.172;2022-12-18T04:00:39;3.85;;;1.17;;
22861;SDS011;11598;50.652;6.172;2022-12-18T04:10:40;2.87;;;0.90;;
22861;SDS011;11598;50.652;6.172;2022-12-18T04:20:40;3.30;;;1.13;;
22861;SDS011;11598;50.652;6.172;2022-12-18T04:30:40;2.95;;;1.10;;
22861;SDS011;11598;50.652;6.172;2022-12-18T04:40:41;2.50;;;0.90;;
22861;SDS011;11598;50.652;6.172;2022-12-18T04:50:41;2.75;;;1.00;;
22861;SDS011;11598;50.652;6.172;2022-12-18T05:00:41;3.83;;;1.30;;
22861;SDS011;11598;50.652;6.172;2022-12-18T05:10:42;3.28;;;1.27;;
22861;SDS011;11598;50.652;6.172;2022-12-18T05:20:42;3.10;;;1.20;;
22861;SDS011;11598;50.652;6.172;2022-12-18T05:30:42;3.65;;;1.52;;
22861;SDS011;11598;50.652;6.172;2022-12-18T05:40:48;3.53;;;1.30;;
22861;SDS011;11598;50.652;6.172;2022-12-18T05:50:49;3.92;;;1.48;;
22861;SDS011;11598;50.652;6.172;2022-12-18T06:00:50;2.33;;;1.00;;
22861;SDS011;11598;50.652;6.172;2022-12-18T06:10:51;3.95;;;1.20;;
22861;SDS011;11598;50.652;6.172;2022-12-18T06:20:56;3.93;;;1.40;;
22861;SDS011;11598;50.652;6.172;2022-12-18T06:30:56;4.57;;;1.50;;
22861;SDS011;11598;50.652;6.172;2022-12-18T06:40:57;3.47;;;1.35;;
22861;SDS011;11598;50.652;6.172;2022-12-18T06:50:57;4.80;;;1.77;;
22861;SDS011;11598;50.652;6.172;2022-12-18T07:01:02;3.40;;;1.20;;
22861;SDS011;11598;50.652;6.172;2022-12-18T07:11:04;4.40;;;1.40;;
22861;SDS011;11598;50.652;6.172;2022-12-18T07:21:05;3.90;;;1.63;;
22861;SDS011;11598;50.652;6.172;2022-12-18T07:31:11;5.22;;;1.98;;
22861;SDS011;11598;50.652;6.172;2022-12-18T07:41:13;4.15;;;1.70;;
22861;SDS011;11598;50.652;6.172;2022-12-18T07:51:14;5.85;;;2.00;;
22861;SDS011;11598;50.652;6.172;2022-12-18T08:01:14;6.10;;;2.33;;
22861;SDS011;11598;50.652;6.172;2022-12-18T08:11:15;6.75;;;2.65;;
22861;SDS011;11598;50.652;6.172;2022-12-18T08:21:16;4.43;;;1.45;;
22861;SDS011;11598;50.652;6.172;2022-12-18T08:31:18;3.55;;;1.33;;
22861;SDS011;11598;50.652;6.172;2022-12-18T08:41:19;4.97;;;1.80;;
22861;SDS011;11598;50.652;6.172;2022-12-18T08:51:21;3.90;;;1.52;;
22861;SDS011;11598;50.652;6.172;2022-12-18T09:01:21;4.43;;;1.90;;
22861;SDS011;11598;50.652;6.172;2022-12-18T09:11:23;3.13;;;1.20;;
22861;SDS011;11598;50.652;6.172;2022-12-18T09:31:26;3.60;;;1.38;;
22861;SDS011;11598;50.652;6.172;2022-12-18T09:41:43;6.13;;;1.98;;
22861;SDS011;11598;50.652;6.172;2022-12-18T09:52:00;5.50;;;2.25;;
22861;SDS011;11598;50.652;6.172;2022-12-18T10:02:15;4.68;;;1.63;;
22861;SDS011;11598;50.652;6.172;2022-12-18T10:12:23;5.38;;;2.05;;
22861;SDS011;11598;50.652;6.172;2022-12-18T10:22:48;5.63;;;2.05;;
22861;SDS011;11598;50.652;6.172;2022-12-18T10:33:12;5.60;;;2.47;;
22861;SDS011;11598;50.652;6.172;2022-12-18T10:43:37;5.10;;;2.20;;
22861;SDS011;11598;50.652;6.172;2022-12-18T10:53:40;4.90;;;1.90;;
22861;SDS011;11598;50.652;6.172;2022-12-18T11:13:59;5.22;;;2.00;;
22861;SDS011;11598;50.652;6.172;2022-12-18T11:24:03;6.18;;;1.95;;
22861;SDS011;11598;50.652;6.172;2022-12-18T11:34:11;5.78;;;2.53;;
22861;SDS011;11598;50.652;6.172;2022-12-18T11:44:21;5.95;;;2.70;;
22861;SDS011;11598;50.652;6.172;2022-12-18T11:54:30;5.47;;;2.65;;
22861;SDS011;11598;50.652;6.172;2022-12-18T12:04:40;6.25;;;3.22;;
22861;SDS011;11598;50.652;6.172;2022-12-18T12:14:48;5.97;;;2.75;;
22861;SDS011;11598;50.652;6.172;2022-12-18T12:55:44;8.75;;;3.28;;
22861;SDS011;11598;50.652;6.172;2022-12-18T13:16:05;7.38;;;3.40;;
22861;SDS011;11598;50.652;6.172;2022-12-18T13:56:22;8.32;;;4.20;;
22861;SDS011;11598;50.652;6.172;2022-12-18T14:06:24;7.85;;;4.07;;
22861;SDS011;11598;50.652;6.172;2022-12-18T14:16:25;9.05;;;4.72;;
22861;SDS011;11598;50.652;6.172;2022-12-18T14:26:26;9.18;;;4.70;;
22861;SDS011;11598;50.652;6.172;2022-12-18T14:36:29;11.32;;;5.78;;
22861;SDS011;11598;50.652;6.172;2022-12-18T14:46:30;12.13;;;5.80;;
22861;SDS011;11598;50.652;6.172;2022-12-18T14:56:35;11.57;;;5.80;;
22861;SDS011;11598;50.652;6.172;2022-12-18T15:06:42;12.10;;;5.65;;
22861;SDS011;11598;50.652;6.172;2022-12-18T15:16:43;10.75;;;5.43;;
22861;SDS011;11598;50.652;6.172;2022-12-18T15:26:43;14.02;;;7.03;;
22861;SDS011;11598;50.652;6.172;2022-12-18T15:36:44;13.80;;;6.57;;
22861;SDS011;11598;50.652;6.172;2022-12-18T15:46:44;13.23;;;7.13;;
22861;SDS011;11598;50.652;6.172;2022-12-18T15:56:45;13.90;;;6.97;;
22861;SDS011;11598;50.652;6.172;2022-12-18T16:07:03;11.95;;;6.47;;
22861;SDS011;11598;50.652;6.172;2022-12-18T16:17:08;12.02;;;6.43;;
22861;SDS011;11598;50.652;6.172;2022-12-18T16:27:10;10.55;;;5.57;;
22861;SDS011;11598;50.652;6.172;2022-12-18T16:37:11;12.40;;;6.25;;
22861;SDS011;11598;50.652;6.172;2022-12-18T16:47:13;7.47;;;3.97;;
22861;SDS011;11598;50.652;6.172;2022-12-18T16:57:15;12.98;;;6.60;;
22861;SDS011;11598;50.652;6.172;2022-12-18T17:07:17;11.68;;;6.03;;
22861;SDS011;11598;50.652;6.172;2022-12-18T17:17:17;10.90;;;6.15;;
22861;SDS011;11598;50.652;6.172;2022-12-18T17:27:18;10.82;;;5.68;;
22861;SDS011;11598;50.652;6.172;2022-12-18T17:37:18;12.25;;;6.28;;
22861;SDS011;11598;50.652;6.172;2022-12-18T17:47:19;13.43;;;6.63;;
22861;SDS011;11598;50.652;6.172;2022-12-18T17:57:19;12.85;;;5.88;;
22861;SDS011;11598;50.652;6.172;2022-12-18T18:07:19;11.95;;;5.93;;
22861;SDS011;11598;50.652;6.172;2022-12-18T18:17:20;13.10;;;6.28;;
22861;SDS011;11598;50.652;6.172;2022-12-18T18:27:20;13.02;;;6.63;;
22861;SDS011;11598;50.652;6.172;2022-12-18T18:37:21;13.88;;;6.75;;
22861;SDS011;11598;50.652;6.172;2022-12-18T18:47:21;12.40;;;6.57;;
22861;SDS011;11598;50.652;6.172;2022-12-18T18:57:22;13.95;;;7.20;;
22861;SDS011;11598;50.652;6.172;2022-12-18T19:07:22;16.40;;;7.57;;
22861;SDS011;11598;50.652;6.172;2022-12-18T19:17:22;13.88;;;7.65;;
22861;SDS011;11598;50.652;6.172;2022-12-18T19:27:23;16.40;;;8.15;;
22861;SDS011;11598;50.652;6.172;2022-12-18T19:37:24;18.13;;;8.57;;
22861;SDS011;11598;50.652;6.172;2022-12-18T19:47:24;16.65;;;8.10;;
22861;SDS011;11598;50.652;6.172;2022-12-18T19:57:24;16.20;;;8.30;;
22861;SDS011;11598;50.652;6.172;2022-12-18T20:07:25;15.63;;;7.57;;
22861;SDS011;11598;50.652;6.172;2022-12-18T20:17:25;17.10;;;8.27;;
22861;SDS011;11598;50.652;6.172;2022-12-18T20:27:25;19.30;;;8.85;;
22861;SDS011;11598;50.652;6.172;2022-12-18T20:37:26;18.52;;;9.68;;
22861;SDS011;11598;50.652;6.172;2022-12-18T20:47:26;20.83;;;10.25;;
22861;SDS011;11598;50.652;6.172;2022-12-18T20:57:27;21.27;;;10.65;;
22861;SDS011;11598;50.652;6.172;2022-12-18T21:07:27;24.40;;;11.75;;
22861;SDS011;11598;50.652;6.172;2022-12-18T21:17:27;27.20;;;13.57;;
22861;SDS011;11598;50.652;6.172;2022-12-18T21:27:28;24.52;;;12.57;;
22861;SDS011;11598;50.652;6.172;2022-12-18T21:37:28;26.67;;;13.27;;
22861;SDS011;11598;50.652;6.172;2022-12-18T21:47:29;24.20;;;12.43;;
22861;SDS011;11598;50.652;6.172;2022-12-18T21:57:29;26.23;;;13.45;;
22861;SDS011;11598;50.652;6.172;2022-12-18T22:07:29;26.20;;;13.02;;
22861;SDS011;11598;50.652;6.172;2022-12-18T22:17:30;25.55;;;13.23;;
22861;SDS011;11598;50.652;6.172;2022-12-18T22:27:30;25.90;;;13.10;;
22861;SDS011;11598;50.652;6.172;2022-12-18T22:37:31;23.70;;;12.60;;
22861;SDS011;11598;50.652;6.172;2022-12-18T22:47:32;26.20;;;11.65;;
22861;SDS011;11598;50.652;6.172;2022-12-18T22:57:32;23.55;;;12.13;;
22861;SDS011;11598;50.652;6.172;2022-12-18T23:07:33;23.77;;;11.83;;
22861;SDS011;11598;50.652;6.172;2022-12-18T23:17:33;24.85;;;11.65;;
22861;SDS011;11598;50.652;6.172;2022-12-18T23:27:33;21.98;;;11.60;;
22861;SDS011;11598;50.652;6.172;2022-12-18T23:37:34;24.90;;;13.35;;
22861;SDS011;11598;50.652;6.172;2022-12-18T23:47:34;28.40;;;14.13;;
22861;SDS011;11598;50.652;6.172;2022-12-18T23:57:34;27.27;;;13.63;;
